• Join FlightAware (Why Join?)
  • Login
  • US Flag 
08:52AM EDT


 

Airport Tracker/Info


-or-


 

Live Flight TrackerFlight Track Log ✈ DKT111 ✈ 09-May-2013 ✈ KJMS - KFSD

Flight Track Log - Related Links

Times and Time Zones

All times are in EDT time to prevent confusion due to time zone crossing. See the DKT111 flight status page for this flight to view local times or setup timezone preferences in your user account.

Time Position Orientation Groundspeed Altitude Reporting Facility
EDT Latitude Longitude Course Direction KTS MPH feet Rate Location/Type
11:32AM 46.8736 -98.6072 157° South 161 185 3,300  Level Minneapolis Center
11:33AM 46.8350 -98.5836 157° South 152 175 4,200 780 Climbing Minneapolis Center
11:35AM 46.7967 -98.5606 158° South 151 174 4,900 720 Climbing Minneapolis Center
11:36AM 46.7489 -98.5328 158° South 152 175 5,700 780 Climbing Minneapolis Center
11:37AM 46.7089 -98.5089 158° South 154 177 6,600 600 Climbing Minneapolis Center
11:38AM 46.6608 -98.5132 157° South  Level Estimated
11:38AM 46.6681 -98.4836 157° South 156 180 7,000  Level Minneapolis Center
11:39AM 46.6225 -98.4578 159° South 164 189 7,000  Level Minneapolis Center
11:40AM 46.5728 -98.4314 160° South 176 203 7,000  Level Minneapolis Center
11:41AM 46.5228 -98.4003 157° South 185 213 7,000  Level Minneapolis Center
11:42AM 46.4628 -98.3672 159° South 191 220 7,000  Level Minneapolis Center
11:43AM 46.4142 -98.3422 160° South 190 219 7,000  Level Minneapolis Center
11:44AM 46.3653 -98.3150 159° South 189 217 7,000  Level Minneapolis Center
11:45AM 46.3172 -98.2889 159° South 188 216 7,000  Level Minneapolis Center
11:46AM 46.2672 -98.2586 157° South 190 219 7,000  Level Minneapolis Center
11:47AM 46.2183 -98.2286 157° South 191 220 7,000  Level Minneapolis Center
11:48AM 46.1589 -98.1939 158° South 191 220 7,000 -60 Level Minneapolis Center
11:49AM 46.1108 -98.1700 161° South 188 216 6,900 -60 Descending Minneapolis Center
11:50AM 46.0639 -98.1406 156° South 188 216 6,900  Level Minneapolis Center
11:51AM 46.0139 -98.1147 160° South 190 219 6,900  Level Minneapolis Center
11:52AM 45.9664 -98.0778 152° Southeast 189 217 6,900  Level Minneapolis Center
11:53AM 45.9094 -98.0425 157° South 190 219 6,900  Level Minneapolis Center
11:54AM 45.8608 -98.0136 158° South 190 219 7,000 60 Climbing Minneapolis Center
11:55AM 45.8117 -97.9872 159° South 190 219 7,100  Climbing Minneapolis Center
11:56AM 45.7622 -97.9608 160° South 189 217 7,000 -120 Descending Minneapolis Center
11:57AM 45.7131 -97.9311 157° South 190 219 6,900  Descending Minneapolis Center
11:58AM 45.6650 -97.9033 158° South 189 217 7,000  Climbing Minneapolis Center
11:59AM 45.6053 -97.8767 163° South 188 216 7,000  Level Minneapolis Center
12:00PM 45.5567 -97.8528 161° South 187 215 7,000  Level Minneapolis Center
12:01PM 45.5086 -97.8311 162° South 185 213 7,100  Climbing Minneapolis Center
12:02PM 45.4619 -97.8014 156° South 184 212 7,100 -60 Level Minneapolis Center
12:03PM 45.4150 -97.7733 157° South 183 211 7,000 -120 Descending Minneapolis Center
12:04PM 45.3667 -97.7439 157° South 185 213 6,900 -60 Descending Minneapolis Center
12:05PM 45.3150 -97.7131 157° South 186 214 6,900  Level Minneapolis Center
12:07PM 45.2717 -97.6886 158° South 186 214 7,000  Climbing Minneapolis Center
12:08PM 45.2139 -97.6586 160° South 185 213 7,000 -60 Level Minneapolis Center
12:09PM 45.1594 -97.6311 160° South 187 215 6,900 -60 Descending Minneapolis Center
12:10PM 45.1128 -97.6031 157° South 187 215 6,900  Level Minneapolis Center
12:11PM 45.0608 -97.5808 163° South 189 217 6,900  Level Minneapolis Center
12:12PM 45.0119 -97.5544 159° South 190 219 7,000  Climbing Minneapolis Center
12:13PM 44.9622 -97.5283 160° South 191 220 6,900  Descending Minneapolis Center
12:14PM 44.9122 -97.5031 160° South 191 220 7,000  Climbing Minneapolis Center
12:15PM 44.8519 -97.4744 161° South 191 220 7,000 -60 Level Minneapolis Center
12:16PM 44.8003 -97.4511 162° South 192 221 6,900 -60 Descending Minneapolis Center
12:17PM 44.7469 -97.4283 163° South 195 224 6,900  Level Minneapolis Center
12:18PM 44.6972 -97.3975 156° South 197 227 6,900  Level Minneapolis Center
12:19PM 44.6472 -97.3683 157° South 197 227 7,000  Climbing Minneapolis Center
12:20PM 44.5956 -97.3425 160° South 197 227 6,900 -60 Descending Minneapolis Center
12:21PM 44.5469 -97.3117 156° South 196 226 6,900  Level Minneapolis Center
12:22PM 44.4892 -97.2761 156° South 193 222 6,900  Level Minneapolis Center
12:23PM 44.4403 -97.2467 157° South 192 221 6,900  Level Minneapolis Center
12:24PM 44.3914 -97.2183 158° South 191 220 6,900  Level Minneapolis Center
12:25PM 44.3406 -97.1914 159° South 193 222 6,900  Level Minneapolis Center
12:26PM 44.2914 -97.1628 157° South 193 222 7,000  Climbing Minneapolis Center
12:27PM 44.2431 -97.1322 156° South 192 221 6,900 -60 Descending Minneapolis Center
12:28PM 44.1853 -97.0961 156° South 191 220 6,900  Level Minneapolis Center
12:29PM 44.1375 -97.0650 155° Southeast 191 220 7,000 60 Climbing Minneapolis Center
12:30PM 44.0889 -97.0356 156° South 191 220 7,100  Climbing Minneapolis Center
12:31PM 44.0397 -97.0100 160° South 190 219 7,000 -120 Descending Minneapolis Center
12:32PM 43.9906 -96.9797 156° South 191 220 6,900 -360 Descending Minneapolis Center
12:33PM 43.9347 -96.9678 171° South 198 228 6,300 -600 Descending Minneapolis Center
12:34PM 43.8708 -96.9394 162° South 201 231 5,700 -780 Descending Minneapolis Center
12:35PM 43.8228 -96.9047 152° Southeast 198 228 4,800 -1,080 Descending Minneapolis Center
12:36PM 43.7747 -96.8711 153° Southeast 196 226 3,500 -1,020 Descending Minneapolis Center
12:37PM 43.7278 -96.8389 154° Southeast 194 223 2,800 -420 Descending Minneapolis Center
12:39PM 43.6844 -96.8083 153° Southeast 187 215 2,700 -120 Descending Minneapolis Center
12:40PM 43.6392 -96.7725 150° Southeast 172 198 2,600 -300 Descending Minneapolis Center
12:41PM 43.5964 -96.7683 176° South 166 191 2,200 -420 Descending Minneapolis Center
12:42PM 43.5572 -96.7653 177° South 157 181 1,800 -420 Descending Minneapolis Center
12:44PM 43.5820 -96.7419 34° Northeast  Level Estimated